PWSweather.com
Personal Weather Stations
Station Observations
MBORO100
Brandywood , Murfreesboro, TN 37130

Brandywood Murfreesboro, TN 37130

Lat: 35.908093, Lon: -86.31352

Elevation: 690

Station Type: Davis

Latest ConditionsUpdated 4:30:01 PM CST Wednesday, Dec 12, 2018
Currently Today's Max Today's Min Today's Average
Temperature 48.8°F9.3°C 51.9°F11.1°C 31.0°F-0.6°C 42.0°F5.6°C
Dew Point 34.2°F1.2°C 34.4°F1.3°C 26.3°F-3.2°C 30.2°F-1.0°C
Winds 1.2 mph SSE1.9 kmh SSE 4.6 mph -7.4 kmh - - 1.9 mph 3.1 kmh
Wind Gusts 2.3 mph3.7 kmh 9.2 mph14.8 kmh - -
Humidity 57% 86% 47% 64%
Pressure 30.09 in1019.0 mb 30.25 in1024.4 mb 30.08 in1018.6 mb -
Hour Temp Dew Point Humidity Winds Wind Gusts Pressure Precip Precip Rate Daily Precip Total
04:30 PM 48.8°F9.3°C 34.2°F1.2°C 57% 1.2 mph SSE1.9 kmh SSE 2.3 mph3.7 kmh 30.09 in1019.0 mb - 0.00 in0.0 mm 0.00 in0.0 mm
04:25 PM 49.0°F9.4°C 34.4°F1.3°C 57% 1.2 mph SW1.9 kmh SW 2.3 mph3.7 kmh 30.09 in1019.0 mb - 0.00 in0.0 mm 0.00 in0.0 mm
04:20 PM 49.0°F9.4°C 34.0°F1.1°C 56% 2.3 mph S3.7 kmh S 4.6 mph7.4 kmh 30.09 in1019.0 mb - 0.00 in0.0 mm 0.00 in0.0 mm
04:15 PM 49.0°F9.4°C 34.4°F1.3°C 57% 1.2 mph SSW1.9 kmh SSW 3.5 mph5.6 kmh 30.09 in1019.0 mb - 0.00 in0.0 mm 0.00 in0.0 mm
04:10 PM 49.2°F9.6°C 34.1°F1.2°C 56% Calm Calm 2.3 mph3.7 kmh 30.09 in1019.0 mb - 0.00 in0.0 mm 0.00 in0.0 mm
04:00 PM 49.3°F9.6°C 34.2°F1.2°C 56% 2.3 mph S3.7 kmh S 3.5 mph5.6 kmh 30.09 in1019.0 mb - 0.00 in0.0 mm 0.00 in0.0 mm
03:55 PM 49.5°F9.7°C 34.0°F1.1°C 55% 2.3 mph S3.7 kmh S 3.5 mph5.6 kmh 30.09 in1019.0 mb - 0.00 in0.0 mm 0.00 in0.0 mm
03:50 PM 49.7°F9.8°C 34.2°F1.2°C 55% Calm Calm 1.2 mph1.9 kmh 30.09 in1019.0 mb - 0.00 in0.0 mm 0.00 in0.0 mm
03:45 PM 49.9°F9.9°C 33.9°F1.1°C 54% 2.3 mph S3.7 kmh S 2.3 mph3.7 kmh 30.09 in1019.0 mb - 0.00 in0.0 mm 0.00 in0.0 mm
03:40 PM 49.9°F9.9°C 33.9°F1.1°C 54% 1.2 mph WNW1.9 kmh WNW 1.2 mph1.9 kmh 30.09 in1019.0 mb - 0.00 in0.0 mm 0.00 in0.0 mm
03:35 PM 50.0°F10.0°C 34.0°F1.1°C 54% 1.2 mph S1.9 kmh S 3.5 mph5.6 kmh 30.08 in1018.6 mb - 0.00 in0.0 mm 0.00 in0.0 mm
03:30 PM 50.3°F10.2°C 33.8°F1.0°C 53% 1.2 mph WNW1.9 kmh WNW 3.5 mph5.6 kmh 30.08 in1018.6 mb - 0.00 in0.0 mm 0.00 in0.0 mm
03:25 PM 50.3°F10.2°C 34.3°F1.3°C 54% 1.2 mph S1.9 kmh S 4.6 mph7.4 kmh 30.08 in1018.6 mb - 0.00 in0.0 mm 0.00 in0.0 mm
03:20 PM 50.4°F10.2°C 33.9°F1.1°C 53% 2.3 mph WSW3.7 kmh WSW 3.5 mph5.6 kmh 30.08 in1018.6 mb - 0.00 in0.0 mm 0.00 in0.0 mm
03:15 PM 50.4°F10.2°C 33.4°F0.8°C 52% 3.5 mph S5.6 kmh S 4.6 mph7.4 kmh 30.08 in1018.6 mb - 0.00 in0.0 mm 0.00 in0.0 mm
03:10 PM 50.5°F10.3°C 34.0°F1.1°C 53% 2.3 mph WSW3.7 kmh WSW 3.5 mph5.6 kmh 30.08 in1018.6 mb - 0.00 in0.0 mm 0.00 in0.0 mm
03:00 PM 50.5°F10.3°C 34.0°F1.1°C 53% 2.3 mph SSW3.7 kmh SSW 3.5 mph5.6 kmh 30.08 in1018.6 mb - 0.00 in0.0 mm 0.00 in0.0 mm
02:55 PM 50.5°F10.3°C 33.5°F0.8°C 52% 3.5 mph SSE5.6 kmh SSE 9.2 mph14.8 kmh 30.08 in1018.6 mb - 0.00 in0.0 mm 0.00 in0.0 mm
02:50 PM 50.7°F10.4°C 33.2°F0.7°C 51% 4.6 mph S7.4 kmh S 8.1 mph13.0 kmh 30.08 in1018.6 mb - 0.00 in0.0 mm 0.00 in0.0 mm
02:45 PM 50.8°F10.4°C 33.8°F1.0°C 52% 2.3 mph W3.7 kmh W 3.5 mph5.6 kmh 30.08 in1018.6 mb - 0.00 in0.0 mm 0.00 in0.0 mm
02:40 PM 50.8°F10.4°C 33.8°F1.0°C 52% 2.3 mph WNW3.7 kmh WNW 3.5 mph5.6 kmh 30.08 in1018.6 mb - 0.00 in0.0 mm 0.00 in0.0 mm
02:35 PM 50.8°F10.4°C 33.8°F1.0°C 52% 2.3 mph WNW3.7 kmh WNW 2.3 mph3.7 kmh 30.08 in1018.6 mb - 0.00 in0.0 mm 0.00 in0.0 mm
02:30 PM 51.0°F10.6°C 34.0°F1.1°C 52% 2.3 mph WSW3.7 kmh WSW 3.5 mph5.6 kmh 30.08 in1018.6 mb - 0.00 in0.0 mm 0.00 in0.0 mm
02:25 PM 51.3°F10.7°C 33.8°F1.0°C 51% 3.5 mph SW5.6 kmh SW 3.5 mph5.6 kmh 30.08 in1018.6 mb - 0.00 in0.0 mm 0.00 in0.0 mm
02:20 PM 51.6°F10.9°C 33.6°F0.9°C 50% 2.3 mph WSW3.7 kmh WSW 5.8 mph9.3 kmh 30.08 in1018.6 mb - 0.00 in0.0 mm 0.00 in0.0 mm
02:15 PM 51.7°F10.9°C 34.1°F1.2°C 51% 2.3 mph SSW3.7 kmh SSW 3.5 mph5.6 kmh 30.08 in1018.6 mb - 0.00 in0.0 mm 0.00 in0.0 mm
02:10 PM 51.8°F11.0°C 34.2°F1.2°C 51% 1.2 mph S1.9 kmh S 3.5 mph5.6 kmh 30.09 in1019.0 mb - 0.00 in0.0 mm 0.00 in0.0 mm
02:00 PM 51.7°F10.9°C 34.1°F1.2°C 51% 2.3 mph S3.7 kmh S 5.8 mph9.3 kmh 30.08 in1018.6 mb - 0.00 in0.0 mm 0.00 in0.0 mm
01:55 PM 51.7°F10.9°C 33.6°F0.9°C 50% 3.5 mph S5.6 kmh S 5.8 mph9.3 kmh 30.08 in1018.6 mb - 0.00 in0.0 mm 0.00 in0.0 mm
01:50 PM 51.7°F10.9°C 34.1°F1.2°C 51% 2.3 mph S3.7 kmh S 4.6 mph7.4 kmh 30.09 in1019.0 mb - 0.00 in0.0 mm 0.00 in0.0 mm
01:45 PM 51.5°F10.8°C 34.0°F1.1°C 51% 2.3 mph W3.7 kmh W 3.5 mph5.6 kmh 30.09 in1019.0 mb - 0.00 in0.0 mm 0.00 in0.0 mm
01:40 PM 51.4°F10.8°C 33.4°F0.8°C 50% 2.3 mph S3.7 kmh S 3.5 mph5.6 kmh 30.09 in1019.0 mb - 0.00 in0.0 mm 0.00 in0.0 mm
01:35 PM 51.5°F10.8°C 32.9°F0.5°C 49% 2.3 mph W3.7 kmh W 3.5 mph5.6 kmh 30.09 in1019.0 mb - 0.00 in0.0 mm 0.00 in0.0 mm
01:30 PM 51.5°F10.8°C 32.9°F0.5°C 49% 2.3 mph NW3.7 kmh NW 3.5 mph5.6 kmh 30.09 in1019.0 mb - 0.00 in0.0 mm 0.00 in0.0 mm
01:25 PM 51.5°F10.8°C 32.4°F0.2°C 48% 2.3 mph S3.7 kmh S 4.6 mph7.4 kmh 30.09 in1019.0 mb - 0.00 in0.0 mm 0.00 in0.0 mm
01:20 PM 51.5°F10.8°C 33.0°F0.6°C 49% 2.3 mph S3.7 kmh S 4.6 mph7.4 kmh 30.09 in1019.0 mb - 0.00 in0.0 mm 0.00 in0.0 mm
01:15 PM 51.7°F10.9°C 32.6°F0.3°C 48% 3.5 mph SW5.6 kmh SW 6.9 mph11.1 kmh 30.09 in1019.0 mb - 0.00 in0.0 mm 0.00 in0.0 mm
01:10 PM 51.8°F11.0°C 32.7°F0.4°C 48% 2.3 mph S3.7 kmh S 5.8 mph9.3 kmh 30.09 in1019.0 mb - 0.00 in0.0 mm 0.00 in0.0 mm
01:00 PM 51.6°F10.9°C 33.1°F0.6°C 49% 2.3 mph WSW3.7 kmh WSW 3.5 mph5.6 kmh 30.10 in1019.3 mb - 0.00 in0.0 mm 0.00 in0.0 mm
12:55 PM 51.6°F10.9°C 32.5°F0.3°C 48% 2.3 mph SSW3.7 kmh SSW 5.8 mph9.3 kmh 30.10 in1019.3 mb - 0.00 in0.0 mm 0.00 in0.0 mm
12:50 PM 51.8°F11.0°C 32.2°F0.1°C 47% 2.3 mph W3.7 kmh W 3.5 mph5.6 kmh 30.10 in1019.3 mb - 0.00 in0.0 mm 0.00 in0.0 mm
12:45 PM 51.9°F11.1°C 32.8°F0.4°C 48% 3.5 mph SSE5.6 kmh SSE 2.3 mph3.7 kmh 30.10 in1019.3 mb - 0.00 in0.0 mm 0.00 in0.0 mm
12:40 PM 51.8°F11.0°C 32.2°F0.1°C 47% 1.2 mph E1.9 kmh E 2.3 mph3.7 kmh 30.10 in1019.3 mb - 0.00 in0.0 mm 0.00 in0.0 mm
12:35 PM 51.8°F11.0°C 32.7°F0.4°C 48% 2.3 mph SW3.7 kmh SW 5.8 mph9.3 kmh 30.10 in1019.3 mb - 0.00 in0.0 mm 0.00 in0.0 mm
12:30 PM 51.7°F10.9°C 32.1°F0.1°C 47% 2.3 mph WSW3.7 kmh WSW 5.8 mph9.3 kmh 30.10 in1019.3 mb - 0.00 in0.0 mm 0.00 in0.0 mm
12:25 PM 51.7°F10.9°C 32.1°F0.1°C 47% 3.5 mph SW5.6 kmh SW 4.6 mph7.4 kmh 30.11 in1019.6 mb - 0.00 in0.0 mm 0.00 in0.0 mm
12:20 PM 51.6°F10.9°C 32.0°F0.0°C 47% 1.2 mph S1.9 kmh S 2.3 mph3.7 kmh 30.11 in1019.6 mb - 0.00 in0.0 mm 0.00 in0.0 mm
12:15 PM 51.4°F10.8°C 31.8°F-0.1°C 47% 1.2 mph SW1.9 kmh SW 3.5 mph5.6 kmh 30.11 in1019.6 mb - 0.00 in0.0 mm 0.00 in0.0 mm
12:10 PM 51.3°F10.7°C 31.7°F-0.2°C 47% 3.5 mph S5.6 kmh S 3.5 mph5.6 kmh 30.11 in1019.6 mb - 0.00 in0.0 mm 0.00 in0.0 mm
12:00 PM 51.2°F10.7°C 32.2°F0.1°C 48% 2.3 mph SSW3.7 kmh SSW 5.8 mph9.3 kmh 30.11 in1019.6 mb - 0.00 in0.0 mm 0.00 in0.0 mm
11:55 AM 51.2°F10.7°C 32.7°F0.4°C 49% 3.5 mph W5.6 kmh W 5.8 mph9.3 kmh 30.11 in1019.6 mb - 0.00 in0.0 mm 0.00 in0.0 mm
11:50 AM 51.0°F10.6°C 32.5°F0.3°C 49% 3.5 mph W5.6 kmh W 5.8 mph9.3 kmh 30.12 in1020.0 mb - 0.00 in0.0 mm 0.00 in0.0 mm
11:45 AM 51.0°F10.6°C 33.0°F0.6°C 50% 2.3 mph SW3.7 kmh SW 5.8 mph9.3 kmh 30.12 in1020.0 mb - 0.00 in0.0 mm 0.00 in0.0 mm
11:40 AM 51.0°F10.6°C 33.0°F0.6°C 50% 2.3 mph SSW3.7 kmh SSW 3.5 mph5.6 kmh 30.12 in1020.0 mb - 0.00 in0.0 mm 0.00 in0.0 mm
11:35 AM 51.0°F10.6°C 32.5°F0.3°C 49% 2.3 mph SSW3.7 kmh SSW 5.8 mph9.3 kmh 30.13 in1020.3 mb - 0.00 in0.0 mm 0.00 in0.0 mm
11:30 AM 50.9°F10.5°C 32.9°F0.5°C 50% 2.3 mph SW3.7 kmh SW 3.5 mph5.6 kmh 30.13 in1020.3 mb - 0.00 in0.0 mm 0.00 in0.0 mm
11:25 AM 50.5°F10.3°C 32.5°F0.3°C 50% 3.5 mph WNW5.6 kmh WNW 6.9 mph11.1 kmh 30.14 in1020.7 mb - 0.00 in0.0 mm 0.00 in0.0 mm
11:20 AM 50.1°F10.1°C 32.6°F0.3°C 51% 2.3 mph WSW3.7 kmh WSW 8.1 mph13.0 kmh 30.14 in1020.7 mb - 0.00 in0.0 mm 0.00 in0.0 mm
11:15 AM 49.7°F9.8°C 32.3°F0.2°C 51% 3.5 mph SSE5.6 kmh SSE 4.6 mph7.4 kmh 30.14 in1020.7 mb - 0.00 in0.0 mm 0.00 in0.0 mm
11:10 AM 49.4°F9.7°C 32.0°F0.0°C 51% 1.2 mph WSW1.9 kmh WSW 3.5 mph5.6 kmh 30.14 in1020.7 mb - 0.00 in0.0 mm 0.00 in0.0 mm
11:00 AM 48.8°F9.3°C 31.9°F-0.1°C 52% 3.5 mph WSW5.6 kmh WSW 4.6 mph7.4 kmh 30.14 in1020.7 mb - 0.00 in0.0 mm 0.00 in0.0 mm
10:55 AM 48.7°F9.3°C 32.3°F0.2°C 53% 2.3 mph S3.7 kmh S 3.5 mph5.6 kmh 30.15 in1021.0 mb - 0.00 in0.0 mm 0.00 in0.0 mm
10:50 AM 48.2°F9.0°C 32.8°F0.4°C 55% 2.3 mph WSW3.7 kmh WSW 5.8 mph9.3 kmh 30.15 in1021.0 mb - 0.00 in0.0 mm 0.00 in0.0 mm
10:45 AM 47.6°F8.7°C 31.8°F-0.1°C 54% 3.5 mph S5.6 kmh S 4.6 mph7.4 kmh 30.16 in1021.3 mb - 0.00 in0.0 mm 0.00 in0.0 mm
10:40 AM 47.2°F8.4°C 31.4°F-0.3°C 54% 2.3 mph S3.7 kmh S 4.6 mph7.4 kmh 30.16 in1021.3 mb - 0.00 in0.0 mm 0.00 in0.0 mm
10:35 AM 46.8°F8.2°C 31.4°F-0.3°C 55% 2.3 mph SSW3.7 kmh SSW 3.5 mph5.6 kmh 30.17 in1021.7 mb - 0.00 in0.0 mm 0.00 in0.0 mm
10:30 AM 46.6°F8.1°C 31.3°F-0.4°C 55% 1.2 mph WSW1.9 kmh WSW 3.5 mph5.6 kmh 30.17 in1021.7 mb - 0.00 in0.0 mm 0.00 in0.0 mm
10:25 AM 46.5°F8.1°C 31.2°F-0.4°C 55% 1.2 mph SSE1.9 kmh SSE 4.6 mph7.4 kmh 30.17 in1021.7 mb - 0.00 in0.0 mm 0.00 in0.0 mm
10:20 AM 46.5°F8.1°C 31.2°F-0.4°C 55% 2.3 mph S3.7 kmh S 3.5 mph5.6 kmh 30.18 in1022.0 mb - 0.00 in0.0 mm 0.00 in0.0 mm
10:15 AM 46.4°F8.0°C 31.1°F-0.5°C 55% 2.3 mph W3.7 kmh W 3.5 mph5.6 kmh 30.18 in1022.0 mb - 0.00 in0.0 mm 0.00 in0.0 mm
10:10 AM 46.2°F7.9°C 30.9°F-0.6°C 55% 2.3 mph SW3.7 kmh SW 9.2 mph14.8 kmh 30.18 in1022.0 mb - 0.00 in0.0 mm 0.00 in0.0 mm
10:00 AM 45.9°F7.7°C 31.1°F-0.5°C 56% 3.5 mph WSW5.6 kmh WSW 6.9 mph11.1 kmh 30.18 in1022.0 mb - 0.00 in0.0 mm 0.00 in0.0 mm
09:55 AM 45.8°F7.7°C 31.0°F-0.6°C 56% 2.3 mph S3.7 kmh S 3.5 mph5.6 kmh 30.18 in1022.0 mb - 0.00 in0.0 mm 0.00 in0.0 mm
09:50 AM 45.6°F7.6°C 30.8°F-0.7°C 56% 2.3 mph WSW3.7 kmh WSW 3.5 mph5.6 kmh 30.18 in1022.0 mb - 0.00 in0.0 mm 0.00 in0.0 mm
09:45 AM 45.5°F7.5°C 31.1°F-0.5°C 57% 2.3 mph SW3.7 kmh SW 6.9 mph11.1 kmh 30.18 in1022.0 mb - 0.00 in0.0 mm 0.00 in0.0 mm
09:40 AM 45.4°F7.4°C 31.1°F-0.5°C 57% 1.2 mph WSW1.9 kmh WSW 3.5 mph5.6 kmh 30.18 in1022.0 mb - 0.00 in0.0 mm 0.00 in0.0 mm
09:35 AM 45.3°F7.4°C 31.0°F-0.6°C 57% 3.5 mph W5.6 kmh W 6.9 mph11.1 kmh 30.17 in1021.7 mb - 0.00 in0.0 mm 0.00 in0.0 mm
09:30 AM 45.0°F7.2°C 30.7°F-0.7°C 57% 3.5 mph SW5.6 kmh SW 5.8 mph9.3 kmh 30.18 in1022.0 mb - 0.00 in0.0 mm 0.00 in0.0 mm
09:25 AM 44.6°F7.0°C 31.1°F-0.5°C 59% 2.3 mph NW3.7 kmh NW 3.5 mph5.6 kmh 30.18 in1022.0 mb - 0.00 in0.0 mm 0.00 in0.0 mm
09:20 AM 44.0°F6.7°C 31.4°F-0.3°C 61% 2.3 mph WSW3.7 kmh WSW 3.5 mph5.6 kmh 30.18 in1022.0 mb - 0.00 in0.0 mm 0.00 in0.0 mm
09:15 AM 43.5°F6.4°C 31.3°F-0.4°C 62% 1.2 mph S1.9 kmh S 3.5 mph5.6 kmh 30.18 in1022.0 mb - 0.00 in0.0 mm 0.00 in0.0 mm
09:10 AM 43.2°F6.2°C 31.0°F-0.6°C 62% 1.2 mph N1.9 kmh N 3.5 mph5.6 kmh 30.18 in1022.0 mb - 0.00 in0.0 mm 0.00 in0.0 mm
09:00 AM 42.4°F5.8°C 31.1°F-0.5°C 64% 2.3 mph SSW3.7 kmh SSW 3.5 mph5.6 kmh 30.18 in1022.0 mb - 0.00 in0.0 mm 0.00 in0.0 mm
08:55 AM 42.1°F5.6°C 31.2°F-0.4°C 65% 2.3 mph S3.7 kmh S 3.5 mph5.6 kmh 30.18 in1022.0 mb - 0.00 in0.0 mm 0.00 in0.0 mm
08:50 AM 41.7°F5.4°C 31.2°F-0.4°C 66% 2.3 mph WSW3.7 kmh WSW 3.5 mph5.6 kmh 30.18 in1022.0 mb - 0.00 in0.0 mm 0.00 in0.0 mm
08:45 AM 41.4°F5.2°C 30.9°F-0.6°C 66% 2.3 mph S3.7 kmh S 3.5 mph5.6 kmh 30.18 in1022.0 mb - 0.00 in0.0 mm 0.00 in0.0 mm
08:40 AM 40.9°F4.9°C 31.1°F-0.5°C 68% 1.2 mph WNW1.9 kmh WNW 2.3 mph3.7 kmh 30.18 in1022.0 mb - 0.00 in0.0 mm 0.00 in0.0 mm
08:35 AM 40.3°F4.6°C 31.3°F-0.4°C 70% 2.3 mph SSE3.7 kmh SSE 3.5 mph5.6 kmh 30.18 in1022.0 mb - 0.00 in0.0 mm 0.00 in0.0 mm
08:30 AM 39.9°F4.4°C 31.2°F-0.4°C 71% 2.3 mph S3.7 kmh S 3.5 mph5.6 kmh 30.18 in1022.0 mb - 0.00 in0.0 mm 0.00 in0.0 mm
08:25 AM 39.4°F4.1°C 31.1°F-0.5°C 72% 1.2 mph S1.9 kmh S 4.6 mph7.4 kmh 30.18 in1022.0 mb - 0.00 in0.0 mm 0.00 in0.0 mm
08:20 AM 39.0°F3.9°C 30.4°F-0.9°C 71% 1.2 mph S1.9 kmh S 2.3 mph3.7 kmh 30.18 in1022.0 mb - 0.00 in0.0 mm 0.00 in0.0 mm
08:15 AM 38.9°F3.8°C 29.9°F-1.2°C 70% 1.2 mph S1.9 kmh S 2.3 mph3.7 kmh 30.19 in1022.4 mb - 0.00 in0.0 mm 0.00 in0.0 mm
08:10 AM 38.7°F3.7°C 30.1°F-1.1°C 71% 1.2 mph SSE1.9 kmh SSE 2.3 mph3.7 kmh 30.18 in1022.0 mb - 0.00 in0.0 mm 0.00 in0.0 mm
08:00 AM 38.2°F3.4°C 29.9°F-1.2°C 72% 1.2 mph SSE1.9 kmh SSE 2.3 mph3.7 kmh 30.19 in1022.4 mb - 0.00 in0.0 mm 0.00 in0.0 mm
07:55 AM 37.8°F3.2°C 29.6°F-1.3°C 72% 2.3 mph S3.7 kmh S 3.5 mph5.6 kmh 30.19 in1022.4 mb - 0.00 in0.0 mm 0.00 in0.0 mm
07:50 AM 37.3°F2.9°C 29.5°F-1.4°C 73% 2.3 mph S3.7 kmh S 3.5 mph5.6 kmh 30.19 in1022.4 mb - 0.00 in0.0 mm 0.00 in0.0 mm
07:45 AM 37.1°F2.8°C 29.3°F-1.5°C 73% 3.5 mph S5.6 kmh S 3.5 mph5.6 kmh 30.19 in1022.4 mb - 0.00 in0.0 mm 0.00 in0.0 mm
07:40 AM 37.1°F2.8°C 29.2°F-1.6°C 73% 1.2 mph S1.9 kmh S 2.3 mph3.7 kmh 30.19 in1022.4 mb - 0.00 in0.0 mm 0.00 in0.0 mm
07:35 AM 37.0°F2.8°C 29.1°F-1.6°C 73% 2.3 mph S3.7 kmh S 2.3 mph3.7 kmh 30.19 in1022.4 mb - 0.00 in0.0 mm 0.00 in0.0 mm
07:30 AM 37.1°F2.8°C 29.2°F-1.6°C 73% 2.3 mph S3.7 kmh S 3.5 mph5.6 kmh 30.19 in1022.4 mb - 0.00 in0.0 mm 0.00 in0.0 mm
07:25 AM 37.0°F2.8°C 29.1°F-1.6°C 73% 2.3 mph S3.7 kmh S 4.6 mph7.4 kmh 30.19 in1022.4 mb - 0.00 in0.0 mm 0.00 in0.0 mm
07:20 AM 36.9°F2.7°C 29.1°F-1.6°C 73% 2.3 mph S3.7 kmh S 3.5 mph5.6 kmh 30.19 in1022.4 mb - 0.00 in0.0 mm 0.00 in0.0 mm
07:15 AM 37.1°F2.8°C 29.2°F-1.6°C 73% 1.2 mph S1.9 kmh S 3.5 mph5.6 kmh 30.19 in1022.4 mb - 0.00 in0.0 mm 0.00 in0.0 mm
07:10 AM 36.9°F2.7°C 29.0°F-1.7°C 73% 2.3 mph S3.7 kmh S 3.5 mph5.6 kmh 30.19 in1022.4 mb - 0.00 in0.0 mm 0.00 in0.0 mm
07:00 AM 36.4°F2.4°C 28.6°F-1.9°C 73% Calm Calm 3.5 mph5.6 kmh 30.19 in1022.4 mb - 0.00 in0.0 mm 0.00 in0.0 mm
06:55 AM 36.3°F2.4°C 28.1°F-2.2°C 72% Calm Calm -- 30.20 in1022.7 mb - 0.00 in0.0 mm 0.00 in0.0 mm
06:50 AM 36.4°F2.4°C 28.2°F-2.1°C 72% Calm Calm -- 30.20 in1022.7 mb - 0.00 in0.0 mm 0.00 in0.0 mm
06:45 AM 36.3°F2.4°C 28.2°F-2.1°C 72% Calm Calm -- 30.20 in1022.7 mb - 0.00 in0.0 mm 0.00 in0.0 mm
06:40 AM 36.7°F2.6°C 28.1°F-2.2°C 71% Calm Calm -- 30.19 in1022.4 mb - 0.00 in0.0 mm 0.00 in0.0 mm
06:35 AM 37.0°F2.8°C 28.5°F-1.9°C 71% Calm Calm -- 30.19 in1022.4 mb - 0.00 in0.0 mm 0.00 in0.0 mm
06:30 AM 36.8°F2.7°C 28.3°F-2.1°C 71% Calm Calm -- 30.19 in1022.4 mb - 0.00 in0.0 mm 0.00 in0.0 mm
06:25 AM 36.1°F2.3°C 28.3°F-2.1°C 73% Calm Calm -- 30.19 in1022.4 mb - 0.00 in0.0 mm 0.00 in0.0 mm
06:20 AM 35.0°F1.7°C 28.2°F-2.1°C 76% Calm Calm -- 30.19 in1022.4 mb - 0.00 in0.0 mm 0.00 in0.0 mm
06:15 AM 34.0°F1.1°C 27.5°F-2.5°C 77% Calm Calm -- 30.19 in1022.4 mb - 0.00 in0.0 mm 0.00 in0.0 mm
06:10 AM 34.9°F1.6°C 28.1°F-2.2°C 76% Calm Calm -- 30.18 in1022.0 mb - 0.00 in0.0 mm 0.00 in0.0 mm
06:00 AM 33.2°F0.7°C 27.4°F-2.6°C 79% Calm Calm -- 30.19 in1022.4 mb - 0.00 in0.0 mm 0.00 in0.0 mm
05:55 AM 34.1°F1.2°C 27.3°F-2.6°C 76% Calm Calm -- 30.18 in1022.0 mb - 0.00 in0.0 mm 0.00 in0.0 mm
05:50 AM 35.9°F2.2°C 27.4°F-2.6°C 71% Calm Calm -- 30.18 in1022.0 mb - 0.00 in0.0 mm 0.00 in0.0 mm
05:45 AM 36.8°F2.7°C 27.9°F-2.3°C 70% Calm Calm -- 30.19 in1022.4 mb - 0.00 in0.0 mm 0.00 in0.0 mm
05:40 AM 36.8°F2.7°C 27.6°F-2.4°C 69% 1.2 mph S1.9 kmh S 2.3 mph3.7 kmh 30.18 in1022.0 mb - 0.00 in0.0 mm 0.00 in0.0 mm
05:35 AM 36.5°F2.5°C 27.7°F-2.4°C 70% 1.2 mph SE1.9 kmh SE 2.3 mph3.7 kmh 30.18 in1022.0 mb - 0.00 in0.0 mm 0.00 in0.0 mm
05:30 AM 36.2°F2.3°C 27.7°F-2.4°C 71% 1.2 mph SE1.9 kmh SE 2.3 mph3.7 kmh 30.18 in1022.0 mb - 0.00 in0.0 mm 0.00 in0.0 mm
05:25 AM 36.1°F2.3°C 27.6°F-2.4°C 71% 2.3 mph SSE3.7 kmh SSE 3.5 mph5.6 kmh 30.18 in1022.0 mb - 0.00 in0.0 mm 0.00 in0.0 mm
05:20 AM 36.1°F2.3°C 27.6°F-2.4°C 71% 3.5 mph SSE5.6 kmh SSE 3.5 mph5.6 kmh 30.18 in1022.0 mb - 0.00 in0.0 mm 0.00 in0.0 mm
05:15 AM 36.1°F2.3°C 27.6°F-2.4°C 71% 3.5 mph SSE5.6 kmh SSE 4.6 mph7.4 kmh 30.18 in1022.0 mb - 0.00 in0.0 mm 0.00 in0.0 mm
05:10 AM 36.1°F2.3°C 27.6°F-2.4°C 71% 3.5 mph SSE5.6 kmh SSE 3.5 mph5.6 kmh 30.18 in1022.0 mb - 0.00 in0.0 mm 0.00 in0.0 mm
05:00 AM 36.0°F2.2°C 27.5°F-2.5°C 71% 3.5 mph SE5.6 kmh SE 4.6 mph7.4 kmh 30.18 in1022.0 mb - 0.00 in0.0 mm 0.00 in0.0 mm
04:55 AM 35.7°F2.1°C 27.3°F-2.6°C 71% 3.5 mph SSE5.6 kmh SSE 4.6 mph7.4 kmh 30.18 in1022.0 mb - 0.00 in0.0 mm 0.00 in0.0 mm
04:50 AM 35.5°F1.9°C 27.4°F-2.6°C 72% 3.5 mph SSE5.6 kmh SSE 4.6 mph7.4 kmh 30.18 in1022.0 mb - 0.00 in0.0 mm 0.00 in0.0 mm
04:45 AM 35.4°F1.9°C 27.3°F-2.6°C 72% 2.3 mph SE3.7 kmh SE 3.5 mph5.6 kmh 30.18 in1022.0 mb - 0.00 in0.0 mm 0.00 in0.0 mm
04:40 AM 35.4°F1.9°C 27.2°F-2.7°C 72% 3.5 mph SSE5.6 kmh SSE 4.6 mph7.4 kmh 30.19 in1022.4 mb - 0.00 in0.0 mm 0.00 in0.0 mm
04:35 AM 35.3°F1.8°C 27.2°F-2.7°C 72% 3.5 mph SE5.6 kmh SE 3.5 mph5.6 kmh 30.19 in1022.4 mb - 0.00 in0.0 mm 0.00 in0.0 mm
04:30 AM 35.3°F1.8°C 27.2°F-2.7°C 72% 3.5 mph SSE5.6 kmh SSE 5.8 mph9.3 kmh 30.19 in1022.4 mb - 0.00 in0.0 mm 0.00 in0.0 mm
04:25 AM 35.3°F1.8°C 27.2°F-2.7°C 72% 3.5 mph SE5.6 kmh SE 3.5 mph5.6 kmh 30.19 in1022.4 mb - 0.00 in0.0 mm 0.00 in0.0 mm
04:20 AM 35.4°F1.9°C 27.3°F-2.6°C 72% 2.3 mph SSE3.7 kmh SSE 4.6 mph7.4 kmh 30.19 in1022.4 mb - 0.00 in0.0 mm 0.00 in0.0 mm
04:15 AM 35.5°F1.9°C 27.4°F-2.6°C 72% 3.5 mph SSE5.6 kmh SSE 4.6 mph7.4 kmh 30.20 in1022.7 mb - 0.00 in0.0 mm 0.00 in0.0 mm
04:10 AM 35.5°F1.9°C 27.3°F-2.6°C 72% 2.3 mph SE3.7 kmh SE 3.5 mph5.6 kmh 30.20 in1022.7 mb - 0.00 in0.0 mm 0.00 in0.0 mm
04:00 AM 35.0°F1.7°C 27.2°F-2.7°C 73% 2.3 mph SE3.7 kmh SE 3.5 mph5.6 kmh 30.21 in1023.0 mb - 0.00 in0.0 mm 0.00 in0.0 mm
03:55 AM 34.9°F1.6°C 27.1°F-2.7°C 73% 1.2 mph SE1.9 kmh SE 3.5 mph5.6 kmh 30.21 in1023.0 mb - 0.00 in0.0 mm 0.00 in0.0 mm
03:50 AM 34.7°F1.5°C 27.2°F-2.7°C 74% 1.2 mph SSE1.9 kmh SSE 3.5 mph5.6 kmh 30.21 in1023.0 mb - 0.00 in0.0 mm 0.00 in0.0 mm
03:45 AM 34.4°F1.3°C 27.0°F-2.8°C 74% 2.3 mph SSE3.7 kmh SSE 3.5 mph5.6 kmh 30.21 in1023.0 mb - 0.00 in0.0 mm 0.00 in0.0 mm
03:40 AM 34.2°F1.2°C 26.8°F-2.9°C 74% 2.3 mph SSE3.7 kmh SSE 3.5 mph5.6 kmh 30.22 in1023.4 mb - 0.00 in0.0 mm 0.00 in0.0 mm
03:35 AM 34.0°F1.1°C 26.9°F-2.8°C 75% 2.3 mph SSE3.7 kmh SSE 3.5 mph5.6 kmh 30.22 in1023.4 mb - 0.00 in0.0 mm 0.00 in0.0 mm
03:30 AM 33.3°F0.7°C 26.9°F-2.8°C 77% 1.2 mph SSE1.9 kmh SSE 2.3 mph3.7 kmh 30.22 in1023.4 mb - 0.00 in0.0 mm 0.00 in0.0 mm
03:25 AM 33.5°F0.8°C 26.8°F-2.9°C 76% 2.3 mph SSE3.7 kmh SSE 3.5 mph5.6 kmh 30.22 in1023.4 mb - 0.00 in0.0 mm 0.00 in0.0 mm
03:20 AM 33.4°F0.8°C 27.0°F-2.8°C 77% 1.2 mph SSE1.9 kmh SSE 3.5 mph5.6 kmh 30.22 in1023.4 mb - 0.00 in0.0 mm 0.00 in0.0 mm
03:15 AM 32.9°F0.5°C 26.5°F-3.1°C 77% 1.2 mph S1.9 kmh S 3.5 mph5.6 kmh 30.22 in1023.4 mb - 0.00 in0.0 mm 0.00 in0.0 mm
03:10 AM 34.1°F1.2°C 27.0°F-2.8°C 75% 2.3 mph S3.7 kmh S 2.3 mph3.7 kmh 30.23 in1023.7 mb - 0.00 in0.0 mm 0.00 in0.0 mm
03:00 AM 34.7°F1.5°C 27.0°F-2.8°C 73% 2.3 mph SSE3.7 kmh SSE 3.5 mph5.6 kmh 30.23 in1023.7 mb - 0.00 in0.0 mm 0.00 in0.0 mm
02:55 AM 35.1°F1.7°C 27.3°F-2.6°C 73% 1.2 mph SSE1.9 kmh SSE 1.2 mph1.9 kmh 30.23 in1023.7 mb - 0.00 in0.0 mm 0.00 in0.0 mm
02:50 AM 34.9°F1.6°C 27.1°F-2.7°C 73% 2.3 mph SSE3.7 kmh SSE 3.5 mph5.6 kmh 30.23 in1023.7 mb - 0.00 in0.0 mm 0.00 in0.0 mm
02:45 AM 34.1°F1.2°C 27.3°F-2.6°C 76% Calm Calm 1.2 mph1.9 kmh 30.23 in1023.7 mb - 0.00 in0.0 mm 0.00 in0.0 mm
02:40 AM 36.1°F2.3°C 27.3°F-2.6°C 70% 1.2 mph SSE1.9 kmh SSE 1.2 mph1.9 kmh 30.24 in1024.0 mb - 0.00 in0.0 mm 0.00 in0.0 mm
02:35 AM 35.9°F2.2°C 26.8°F-2.9°C 69% 2.3 mph SSE3.7 kmh SSE 2.3 mph3.7 kmh 30.23 in1023.7 mb - 0.00 in0.0 mm 0.00 in0.0 mm
02:30 AM 36.0°F2.2°C 27.2°F-2.7°C 70% 1.2 mph S1.9 kmh S 1.2 mph1.9 kmh 30.23 in1023.7 mb - 0.00 in0.0 mm 0.00 in0.0 mm
02:25 AM 35.9°F2.2°C 27.1°F-2.7°C 70% 1.2 mph SE1.9 kmh SE 2.3 mph3.7 kmh 30.23 in1023.7 mb - 0.00 in0.0 mm 0.00 in0.0 mm
02:20 AM 35.5°F1.9°C 27.4°F-2.6°C 72% Calm Calm -- 30.23 in1023.7 mb - 0.00 in0.0 mm 0.00 in0.0 mm
02:15 AM 34.3°F1.3°C 27.5°F-2.5°C 76% Calm Calm -- 30.23 in1023.7 mb - 0.00 in0.0 mm 0.00 in0.0 mm
02:10 AM 35.0°F1.7°C 27.6°F-2.4°C 74% 1.2 mph SSE1.9 kmh SSE 1.2 mph1.9 kmh 30.23 in1023.7 mb - 0.00 in0.0 mm 0.00 in0.0 mm
02:00 AM 35.3°F1.8°C 27.2°F-2.7°C 72% Calm Calm 1.2 mph1.9 kmh 30.23 in1023.7 mb - 0.00 in0.0 mm 0.00 in0.0 mm
01:55 AM 34.6°F1.4°C 27.2°F-2.7°C 74% 1.2 mph SSE1.9 kmh SSE 2.3 mph3.7 kmh 30.23 in1023.7 mb - 0.00 in0.0 mm 0.00 in0.0 mm
01:50 AM 34.3°F1.3°C 27.2°F-2.7°C 75% 2.3 mph S3.7 kmh S 3.5 mph5.6 kmh 30.23 in1023.7 mb - 0.00 in0.0 mm 0.00 in0.0 mm
01:45 AM 34.4°F1.3°C 27.3°F-2.6°C 75% 2.3 mph S3.7 kmh S 3.5 mph5.6 kmh 30.23 in1023.7 mb - 0.00 in0.0 mm 0.00 in0.0 mm
01:40 AM 34.6°F1.4°C 27.2°F-2.7°C 74% Calm Calm -- 30.23 in1023.7 mb - 0.00 in0.0 mm 0.00 in0.0 mm
01:35 AM 35.0°F1.7°C 27.3°F-2.6°C 73% 1.2 mph S1.9 kmh S 1.2 mph1.9 kmh 30.23 in1023.7 mb - 0.00 in0.0 mm 0.00 in0.0 mm
01:30 AM 35.1°F1.7°C 27.6°F-2.4°C 74% 2.3 mph S3.7 kmh S 3.5 mph5.6 kmh 30.23 in1023.7 mb - 0.00 in0.0 mm 0.00 in0.0 mm
01:25 AM 34.2°F1.2°C 27.7°F-2.4°C 77% 1.2 mph SE1.9 kmh SE 2.3 mph3.7 kmh 30.23 in1023.7 mb - 0.00 in0.0 mm 0.00 in0.0 mm
01:20 AM 34.7°F1.5°C 27.6°F-2.4°C 75% 1.2 mph SE1.9 kmh SE 1.2 mph1.9 kmh 30.23 in1023.7 mb - 0.00 in0.0 mm 0.00 in0.0 mm
01:15 AM 35.3°F1.8°C 27.8°F-2.3°C 74% 1.2 mph SE1.9 kmh SE 2.3 mph3.7 kmh 30.23 in1023.7 mb - 0.00 in0.0 mm 0.00 in0.0 mm
01:10 AM 35.8°F2.1°C 27.6°F-2.4°C 72% 1.2 mph SE1.9 kmh SE 2.3 mph3.7 kmh 30.23 in1023.7 mb - 0.00 in0.0 mm 0.00 in0.0 mm
01:00 AM 35.3°F1.8°C 27.8°F-2.3°C 74% Calm Calm -- 30.25 in1024.4 mb - 0.00 in0.0 mm 0.00 in0.0 mm
12:55 AM 35.1°F1.7°C 28.3°F-2.1°C 76% Calm Calm -- 30.25 in1024.4 mb - 0.00 in0.0 mm 0.00 in0.0 mm
12:50 AM 34.5°F1.4°C 28.3°F-2.1°C 78% 1.2 mph SSE1.9 kmh SSE 2.3 mph3.7 kmh 30.25 in1024.4 mb - 0.00 in0.0 mm 0.00 in0.0 mm
12:45 AM 33.3°F0.7°C 28.4°F-2.0°C 82% 1.2 mph S1.9 kmh S 2.3 mph3.7 kmh 30.25 in1024.4 mb - 0.00 in0.0 mm 0.00 in0.0 mm
12:40 AM 31.2°F-0.4°C 27.5°F-2.5°C 86% 1.2 mph S1.9 kmh S 2.3 mph3.7 kmh 30.25 in1024.4 mb - 0.00 in0.0 mm 0.00 in0.0 mm
12:35 AM 31.0°F-0.6°C 27.0°F-2.8°C 85% 1.2 mph S1.9 kmh S 1.2 mph1.9 kmh 30.24 in1024.0 mb - 0.00 in0.0 mm 0.00 in0.0 mm
12:30 AM 31.5°F-0.3°C 26.3°F-3.2°C 81% Calm Calm -- 30.24 in1024.0 mb - 0.00 in0.0 mm 0.00 in0.0 mm
12:25 AM 34.5°F1.4°C 27.8°F-2.3°C 76% 1.2 mph S1.9 kmh S 1.2 mph1.9 kmh 30.24 in1024.0 mb - 0.00 in0.0 mm 0.00 in0.0 mm
12:20 AM 34.8°F1.6°C 28.0°F-2.2°C 76% 1.2 mph S1.9 kmh S 3.5 mph5.6 kmh 30.25 in1024.4 mb - 0.00 in0.0 mm 0.00 in0.0 mm
12:15 AM 34.8°F1.6°C 28.0°F-2.2°C 76% 2.3 mph S3.7 kmh S 3.5 mph5.6 kmh 30.24 in1024.0 mb - 0.00 in0.0 mm 0.00 in0.0 mm
12:10 AM 34.7°F1.5°C 27.9°F-2.3°C 76% 2.3 mph S3.7 kmh S 3.5 mph5.6 kmh 30.25 in1024.4 mb - 0.00 in0.0 mm 0.00 in0.0 mm
12:00 AM 35.0°F1.7°C 27.9°F-2.3°C 75% 2.3 mph S3.7 kmh S 3.5 mph5.6 kmh 30.24 in1024.0 mb - 0.00 in0.0 mm 0.00 in0.0 mm